sensor_id;sensor_type;location;lat;lon;timestamp;temperature;humidity
24146;DHT22;12308;50.948;4.706;2023-02-01T00:01:54;7.90;99.90
24146;DHT22;12308;50.948;4.706;2023-02-01T00:04:20;8.00;99.90
24146;DHT22;12308;50.948;4.706;2023-02-01T00:06:46;7.90;99.90
24146;DHT22;12308;50.948;4.706;2023-02-01T00:09:14;7.90;99.90
24146;DHT22;12308;50.948;4.706;2023-02-01T00:11:40;8.00;99.90
24146;DHT22;12308;50.948;4.706;2023-02-01T00:14:06;8.00;99.90
24146;DHT22;12308;50.948;4.706;2023-02-01T00:16:34;8.00;99.90
24146;DHT22;12308;50.948;4.706;2023-02-01T00:19:12;8.00;99.90
24146;DHT22;12308;50.948;4.706;2023-02-01T00:21:38;8.00;99.90
24146;DHT22;12308;50.948;4.706;2023-02-01T00:24:04;8.00;99.90
24146;DHT22;12308;50.948;4.706;2023-02-01T00:26:44;8.00;99.90
24146;DHT22;12308;50.948;4.706;2023-02-01T00:29:13;8.10;99.90
24146;DHT22;12308;50.948;4.706;2023-02-01T00:31:39;8.20;99.90
24146;DHT22;12308;50.948;4.706;2023-02-01T00:34:05;8.20;99.90
24146;DHT22;12308;50.948;4.706;2023-02-01T00:36:31;8.20;99.90
24146;DHT22;12308;50.948;4.706;2023-02-01T00:38:57;8.30;99.90
24146;DHT22;12308;50.948;4.706;2023-02-01T00:41:23;8.30;99.90
24146;DHT22;12308;50.948;4.706;2023-02-01T00:43:50;8.30;99.90
24146;DHT22;12308;50.948;4.706;2023-02-01T00:46:17;8.40;99.90
24146;DHT22;12308;50.948;4.706;2023-02-01T00:48:43;8.50;99.90
24146;DHT22;12308;50.948;4.706;2023-02-01T00:51:12;8.40;99.90
24146;DHT22;12308;50.948;4.706;2023-02-01T00:53:38;8.40;99.90
24146;DHT22;12308;50.948;4.706;2023-02-01T00:56:04;8.30;99.90
24146;DHT22;12308;50.948;4.706;2023-02-01T00:58:31;8.10;99.90
24146;DHT22;12308;50.948;4.706;2023-02-01T01:03:29;8.10;99.90
24146;DHT22;12308;50.948;4.706;2023-02-01T01:05:59;8.20;99.90
24146;DHT22;12308;50.948;4.706;2023-02-01T01:08:25;8.20;99.90
24146;DHT22;12308;50.948;4.706;2023-02-01T01:10:51;8.20;99.90
24146;DHT22;12308;50.948;4.706;2023-02-01T01:13:16;8.20;99.90
24146;DHT22;12308;50.948;4.706;2023-02-01T01:15:42;8.10;99.90
24146;DHT22;12308;50.948;4.706;2023-02-01T01:18:09;7.90;99.90
24146;DHT22;12308;50.948;4.706;2023-02-01T01:20:36;8.00;99.90
24146;DHT22;12308;50.948;4.706;2023-02-01T01:23:02;8.10;99.90
24146;DHT22;12308;50.948;4.706;2023-02-01T01:25:28;8.20;99.90
24146;DHT22;12308;50.948;4.706;2023-02-01T01:27:54;8.10;99.90
24146;DHT22;12308;50.948;4.706;2023-02-01T01:30:20;8.10;99.90
24146;DHT22;12308;50.948;4.706;2023-02-01T01:32:45;8.00;99.90
24146;DHT22;12308;50.948;4.706;2023-02-01T01:35:11;8.00;99.90
24146;DHT22;12308;50.948;4.706;2023-02-01T01:37:36;7.90;99.90
24146;DHT22;12308;50.948;4.706;2023-02-01T01:40:07;8.00;99.90
24146;DHT22;12308;50.948;4.706;2023-02-01T01:42:43;8.00;99.90
24146;DHT22;12308;50.948;4.706;2023-02-01T01:45:29;7.90;99.90
24146;DHT22;12308;50.948;4.706;2023-02-01T01:48:01;8.00;99.90
24146;DHT22;12308;50.948;4.706;2023-02-01T01:50:50;8.00;99.90
24146;DHT22;12308;50.948;4.706;2023-02-01T01:53:20;8.00;99.90
24146;DHT22;12308;50.948;4.706;2023-02-01T01:55:49;7.90;99.90
24146;DHT22;12308;50.948;4.706;2023-02-01T01:58:18;7.90;99.90
24146;DHT22;12308;50.948;4.706;2023-02-01T02:00:45;7.80;99.90
24146;DHT22;12308;50.948;4.706;2023-02-01T02:03:20;7.90;99.90
24146;DHT22;12308;50.948;4.706;2023-02-01T02:05:49;7.90;99.90
24146;DHT22;12308;50.948;4.706;2023-02-01T02:08:18;7.90;99.90
24146;DHT22;12308;50.948;4.706;2023-02-01T02:10:50;7.90;99.90
24146;DHT22;12308;50.948;4.706;2023-02-01T02:13:30;8.00;99.90
24146;DHT22;12308;50.948;4.706;2023-02-01T02:19:19;7.80;99.90
24146;DHT22;12308;50.948;4.706;2023-02-01T02:30:36;7.40;99.90
24146;DHT22;12308;50.948;4.706;2023-02-01T02:47:20;7.20;99.90
24146;DHT22;12308;50.948;4.706;2023-02-01T02:49:54;7.10;99.90
24146;DHT22;12308;50.948;4.706;2023-02-01T02:52:47;7.10;99.90
24146;DHT22;12308;50.948;4.706;2023-02-01T02:55:34;7.10;99.90
24146;DHT22;12308;50.948;4.706;2023-02-01T02:58:04;7.10;99.90
24146;DHT22;12308;50.948;4.706;2023-02-01T03:00:50;7.10;99.90
24146;DHT22;12308;50.948;4.706;2023-02-01T03:03:38;7.00;99.90
24146;DHT22;12308;50.948;4.706;2023-02-01T03:06:24;7.00;99.90
24146;DHT22;12308;50.948;4.706;2023-02-01T03:08:55;7.00;99.90
24146;DHT22;12308;50.948;4.706;2023-02-01T03:11:23;7.10;99.90
24146;DHT22;12308;50.948;4.706;2023-02-01T03:14:10;6.90;99.90
24146;DHT22;12308;50.948;4.706;2023-02-01T03:16:51;7.00;99.90
24146;DHT22;12308;50.948;4.706;2023-02-01T03:19:29;7.00;99.90
24146;DHT22;12308;50.948;4.706;2023-02-01T03:22:08;7.10;99.90
24146;DHT22;12308;50.948;4.706;2023-02-01T03:24:38;7.10;99.90
24146;DHT22;12308;50.948;4.706;2023-02-01T03:27:21;7.20;99.90
24146;DHT22;12308;50.948;4.706;2023-02-01T03:32:14;7.10;99.90
24146;DHT22;12308;50.948;4.706;2023-02-01T03:34:40;7.10;99.90
24146;DHT22;12308;50.948;4.706;2023-02-01T03:37:10;7.20;99.90
24146;DHT22;12308;50.948;4.706;2023-02-01T03:42:19;7.10;99.90
24146;DHT22;12308;50.948;4.706;2023-02-01T03:47:40;7.10;99.90
24146;DHT22;12308;50.948;4.706;2023-02-01T03:50:11;7.00;99.90
24146;DHT22;12308;50.948;4.706;2023-02-01T03:52:53;7.00;99.90
24146;DHT22;12308;50.948;4.706;2023-02-01T03:55:22;7.00;99.90
24146;DHT22;12308;50.948;4.706;2023-02-01T04:00:34;6.90;99.90
24146;DHT22;12308;50.948;4.706;2023-02-01T04:03:02;6.90;99.90
24146;DHT22;12308;50.948;4.706;2023-02-01T04:05:29;6.90;99.90
24146;DHT22;12308;50.948;4.706;2023-02-01T04:07:56;6.80;99.90
24146;DHT22;12308;50.948;4.706;2023-02-01T04:10:22;6.80;99.90
24146;DHT22;12308;50.948;4.706;2023-02-01T04:12:47;6.80;99.90
24146;DHT22;12308;50.948;4.706;2023-02-01T04:15:13;6.80;99.90
24146;DHT22;12308;50.948;4.706;2023-02-01T04:17:39;6.80;99.90
24146;DHT22;12308;50.948;4.706;2023-02-01T04:20:05;6.80;99.90
24146;DHT22;12308;50.948;4.706;2023-02-01T04:22:31;6.70;99.90
24146;DHT22;12308;50.948;4.706;2023-02-01T04:24:57;6.80;99.90
24146;DHT22;12308;50.948;4.706;2023-02-01T04:27:22;6.90;99.90
24146;DHT22;12308;50.948;4.706;2023-02-01T04:29:48;6.80;99.90
24146;DHT22;12308;50.948;4.706;2023-02-01T04:32:18;6.80;99.90
24146;DHT22;12308;50.948;4.706;2023-02-01T04:34:45;6.70;99.90
24146;DHT22;12308;50.948;4.706;2023-02-01T04:37:10;6.70;99.90
24146;DHT22;12308;50.948;4.706;2023-02-01T04:39:36;6.70;99.90
24146;DHT22;12308;50.948;4.706;2023-02-01T04:42:02;6.60;99.90
24146;DHT22;12308;50.948;4.706;2023-02-01T04:44:28;6.70;99.90
24146;DHT22;12308;50.948;4.706;2023-02-01T04:46:54;6.70;99.90
24146;DHT22;12308;50.948;4.706;2023-02-01T04:49:21;6.80;99.90
24146;DHT22;12308;50.948;4.706;2023-02-01T04:51:47;6.60;99.90
24146;DHT22;12308;50.948;4.706;2023-02-01T04:54:13;6.60;99.90
24146;DHT22;12308;50.948;4.706;2023-02-01T04:56:39;6.60;99.90
24146;DHT22;12308;50.948;4.706;2023-02-01T04:59:05;6.60;99.90
24146;DHT22;12308;50.948;4.706;2023-02-01T05:01:31;6.60;99.90
24146;DHT22;12308;50.948;4.706;2023-02-01T05:03:56;6.60;99.90
24146;DHT22;12308;50.948;4.706;2023-02-01T05:06:22;6.60;99.90
24146;DHT22;12308;50.948;4.706;2023-02-01T05:08:48;6.50;99.90
24146;DHT22;12308;50.948;4.706;2023-02-01T05:11:14;6.50;99.90
24146;DHT22;12308;50.948;4.706;2023-02-01T05:13:59;6.50;99.90
24146;DHT22;12308;50.948;4.706;2023-02-01T05:16:26;6.50;99.90
24146;DHT22;12308;50.948;4.706;2023-02-01T05:18:52;6.50;99.90
24146;DHT22;12308;50.948;4.706;2023-02-01T05:21:18;6.40;99.90
24146;DHT22;12308;50.948;4.706;2023-02-01T05:23:43;6.50;99.90
24146;DHT22;12308;50.948;4.706;2023-02-01T05:26:28;6.50;99.90
24146;DHT22;12308;50.948;4.706;2023-02-01T05:28:56;6.40;99.90
24146;DHT22;12308;50.948;4.706;2023-02-01T05:31:22;6.40;99.90
24146;DHT22;12308;50.948;4.706;2023-02-01T05:33:47;6.40;99.90
24146;DHT22;12308;50.948;4.706;2023-02-01T05:36:13;6.30;99.90
24146;DHT22;12308;50.948;4.706;2023-02-01T05:38:39;6.20;99.90
24146;DHT22;12308;50.948;4.706;2023-02-01T05:41:05;6.20;99.90
24146;DHT22;12308;50.948;4.706;2023-02-01T05:43:30;6.20;99.90
24146;DHT22;12308;50.948;4.706;2023-02-01T05:45:56;6.20;99.90
24146;DHT22;12308;50.948;4.706;2023-02-01T05:48:22;6.20;99.90
24146;DHT22;12308;50.948;4.706;2023-02-01T05:50:47;6.10;99.90
24146;DHT22;12308;50.948;4.706;2023-02-01T05:53:13;6.20;99.90
24146;DHT22;12308;50.948;4.706;2023-02-01T05:55:39;6.20;99.90
24146;DHT22;12308;50.948;4.706;2023-02-01T05:58:05;6.20;99.90
24146;DHT22;12308;50.948;4.706;2023-02-01T06:00:31;6.20;99.90
24146;DHT22;12308;50.948;4.706;2023-02-01T06:02:57;6.20;99.90
24146;DHT22;12308;50.948;4.706;2023-02-01T06:05:23;6.10;99.90
24146;DHT22;12308;50.948;4.706;2023-02-01T06:07:48;6.10;99.90
24146;DHT22;12308;50.948;4.706;2023-02-01T06:10:17;6.20;99.90
24146;DHT22;12308;50.948;4.706;2023-02-01T06:12:43;6.20;99.90
24146;DHT22;12308;50.948;4.706;2023-02-01T06:15:13;6.10;99.90
24146;DHT22;12308;50.948;4.706;2023-02-01T06:17:45;6.10;99.90
24146;DHT22;12308;50.948;4.706;2023-02-01T06:20:12;6.10;99.90
24146;DHT22;12308;50.948;4.706;2023-02-01T06:22:38;6.10;99.90
24146;DHT22;12308;50.948;4.706;2023-02-01T06:25:05;6.20;99.90
24146;DHT22;12308;50.948;4.706;2023-02-01T06:27:32;6.10;99.90
24146;DHT22;12308;50.948;4.706;2023-02-01T06:29:58;6.00;99.90
24146;DHT22;12308;50.948;4.706;2023-02-01T06:32:24;6.00;99.90
24146;DHT22;12308;50.948;4.706;2023-02-01T06:34:49;6.00;99.90
24146;DHT22;12308;50.948;4.706;2023-02-01T06:37:15;6.10;99.90
24146;DHT22;12308;50.948;4.706;2023-02-01T06:39:41;6.10;99.90
24146;DHT22;12308;50.948;4.706;2023-02-01T06:42:06;6.10;99.90
24146;DHT22;12308;50.948;4.706;2023-02-01T06:44:32;6.10;99.90
24146;DHT22;12308;50.948;4.706;2023-02-01T06:46:57;6.00;99.90
24146;DHT22;12308;50.948;4.706;2023-02-01T06:49:23;6.00;99.90
24146;DHT22;12308;50.948;4.706;2023-02-01T06:51:49;6.00;99.90
24146;DHT22;12308;50.948;4.706;2023-02-01T06:54:14;6.00;99.90
24146;DHT22;12308;50.948;4.706;2023-02-01T06:56:40;6.00;99.90
24146;DHT22;12308;50.948;4.706;2023-02-01T06:59:07;6.00;99.90
24146;DHT22;12308;50.948;4.706;2023-02-01T07:01:33;5.90;99.90
24146;DHT22;12308;50.948;4.706;2023-02-01T07:03:59;5.90;99.90
24146;DHT22;12308;50.948;4.706;2023-02-01T07:06:25;5.90;99.90
24146;DHT22;12308;50.948;4.706;2023-02-01T07:08:50;5.90;99.90
24146;DHT22;12308;50.948;4.706;2023-02-01T07:11:18;6.00;99.90
24146;DHT22;12308;50.948;4.706;2023-02-01T07:13:44;6.00;99.90
24146;DHT22;12308;50.948;4.706;2023-02-01T07:16:14;6.00;99.90
24146;DHT22;12308;50.948;4.706;2023-02-01T07:18:40;5.90;99.90
24146;DHT22;12308;50.948;4.706;2023-02-01T07:21:06;5.90;99.90
24146;DHT22;12308;50.948;4.706;2023-02-01T07:23:32;5.90;99.90
24146;DHT22;12308;50.948;4.706;2023-02-01T07:26:00;5.90;99.90
24146;DHT22;12308;50.948;4.706;2023-02-01T07:28:27;5.90;99.90
24146;DHT22;12308;50.948;4.706;2023-02-01T07:30:53;5.90;99.90
24146;DHT22;12308;50.948;4.706;2023-02-01T07:33:23;5.90;99.90
24146;DHT22;12308;50.948;4.706;2023-02-01T07:35:50;6.00;99.90
24146;DHT22;12308;50.948;4.706;2023-02-01T07:38:17;5.90;99.90
24146;DHT22;12308;50.948;4.706;2023-02-01T07:40:43;5.90;99.90
24146;DHT22;12308;50.948;4.706;2023-02-01T07:43:09;5.90;99.90
24146;DHT22;12308;50.948;4.706;2023-02-01T07:45:35;6.00;99.90
24146;DHT22;12308;50.948;4.706;2023-02-01T07:48:01;6.00;99.90
24146;DHT22;12308;50.948;4.706;2023-02-01T07:50:28;6.10;99.90
24146;DHT22;12308;50.948;4.706;2023-02-01T07:52:53;6.10;99.90
24146;DHT22;12308;50.948;4.706;2023-02-01T07:55:20;6.10;99.90
24146;DHT22;12308;50.948;4.706;2023-02-01T07:57:50;6.10;99.90
24146;DHT22;12308;50.948;4.706;2023-02-01T08:00:16;6.10;99.90
24146;DHT22;12308;50.948;4.706;2023-02-01T08:03:00;6.20;99.90
24146;DHT22;12308;50.948;4.706;2023-02-01T08:05:26;6.30;99.90
24146;DHT22;12308;50.948;4.706;2023-02-01T08:07:52;6.40;99.90
24146;DHT22;12308;50.948;4.706;2023-02-01T08:10:18;6.40;99.90
24146;DHT22;12308;50.948;4.706;2023-02-01T08:12:46;6.50;99.90
24146;DHT22;12308;50.948;4.706;2023-02-01T08:15:16;6.50;99.90
24146;DHT22;12308;50.948;4.706;2023-02-01T08:17:49;6.50;99.90
24146;DHT22;12308;50.948;4.706;2023-02-01T08:20:16;6.60;99.90
24146;DHT22;12308;50.948;4.706;2023-02-01T08:22:42;6.60;99.90
24146;DHT22;12308;50.948;4.706;2023-02-01T08:25:08;6.60;99.90
24146;DHT22;12308;50.948;4.706;2023-02-01T08:27:34;6.60;99.90
24146;DHT22;12308;50.948;4.706;2023-02-01T08:29:59;6.60;99.90
24146;DHT22;12308;50.948;4.706;2023-02-01T08:32:27;6.60;99.90
24146;DHT22;12308;50.948;4.706;2023-02-01T08:34:53;6.70;99.90
24146;DHT22;12308;50.948;4.706;2023-02-01T08:37:19;6.70;99.90
24146;DHT22;12308;50.948;4.706;2023-02-01T08:39:44;6.70;99.90
24146;DHT22;12308;50.948;4.706;2023-02-01T08:42:11;6.70;99.90
24146;DHT22;12308;50.948;4.706;2023-02-01T08:44:56;6.90;99.90
24146;DHT22;12308;50.948;4.706;2023-02-01T08:47:22;6.90;99.90
24146;DHT22;12308;50.948;4.706;2023-02-01T08:49:47;7.00;99.90
24146;DHT22;12308;50.948;4.706;2023-02-01T08:52:13;6.90;99.90
24146;DHT22;12308;50.948;4.706;2023-02-01T08:54:39;6.90;99.90
24146;DHT22;12308;50.948;4.706;2023-02-01T08:57:06;7.00;99.90
24146;DHT22;12308;50.948;4.706;2023-02-01T08:59:32;7.10;99.90
24146;DHT22;12308;50.948;4.706;2023-02-01T09:01:58;7.20;99.90
24146;DHT22;12308;50.948;4.706;2023-02-01T09:04:23;7.20;99.90
24146;DHT22;12308;50.948;4.706;2023-02-01T09:06:49;7.20;99.90
24146;DHT22;12308;50.948;4.706;2023-02-01T09:09:15;7.20;99.90
24146;DHT22;12308;50.948;4.706;2023-02-01T09:11:40;7.20;99.90
24146;DHT22;12308;50.948;4.706;2023-02-01T09:14:06;7.10;99.90
24146;DHT22;12308;50.948;4.706;2023-02-01T09:16:32;7.20;99.90
24146;DHT22;12308;50.948;4.706;2023-02-01T09:18:57;7.20;99.90
24146;DHT22;12308;50.948;4.706;2023-02-01T09:21:23;7.20;99.90
24146;DHT22;12308;50.948;4.706;2023-02-01T09:23:51;7.40;99.90
24146;DHT22;12308;50.948;4.706;2023-02-01T09:26:17;7.30;99.90
24146;DHT22;12308;50.948;4.706;2023-02-01T09:28:42;7.40;99.90
24146;DHT22;12308;50.948;4.706;2023-02-01T09:31:08;7.40;99.90
24146;DHT22;12308;50.948;4.706;2023-02-01T09:33:34;7.40;99.90
24146;DHT22;12308;50.948;4.706;2023-02-01T09:36:03;7.40;99.90
24146;DHT22;12308;50.948;4.706;2023-02-01T09:38:30;7.40;99.90
24146;DHT22;12308;50.948;4.706;2023-02-01T09:40:57;7.50;99.90
24146;DHT22;12308;50.948;4.706;2023-02-01T09:48:38;7.50;99.90
24146;DHT22;12308;50.948;4.706;2023-02-01T09:51:20;7.60;99.90
24146;DHT22;12308;50.948;4.706;2023-02-01T09:54:56;7.60;99.90
24146;DHT22;12308;50.948;4.706;2023-02-01T09:56:56;7.60;99.90
24146;DHT22;12308;50.948;4.706;2023-02-01T09:59:49;7.70;99.90
24146;DHT22;12308;50.948;4.706;2023-02-01T10:02:22;7.70;99.90
24146;DHT22;12308;50.948;4.706;2023-02-01T10:04:48;7.70;99.90
24146;DHT22;12308;50.948;4.706;2023-02-01T10:10:44;7.90;99.90
24146;DHT22;12308;50.948;4.706;2023-02-01T10:13:26;7.90;99.90
24146;DHT22;12308;50.948;4.706;2023-02-01T10:18:43;7.90;99.90
24146;DHT22;12308;50.948;4.706;2023-02-01T10:27:06;8.20;99.90
24146;DHT22;12308;50.948;4.706;2023-02-01T10:29:39;8.20;99.90
24146;DHT22;12308;50.948;4.706;2023-02-01T10:32:27;8.20;99.90
24146;DHT22;12308;50.948;4.706;2023-02-01T10:34:59;8.20;99.90
24146;DHT22;12308;50.948;4.706;2023-02-01T10:37:30;8.30;99.90
24146;DHT22;12308;50.948;4.706;2023-02-01T10:40:00;8.30;99.90
24146;DHT22;12308;50.948;4.706;2023-02-01T10:42:28;8.50;99.90
24146;DHT22;12308;50.948;4.706;2023-02-01T10:44:58;8.50;99.90
24146;DHT22;12308;50.948;4.706;2023-02-01T10:47:24;8.50;99.90
24146;DHT22;12308;50.948;4.706;2023-02-01T10:50:08;8.60;99.90
24146;DHT22;12308;50.948;4.706;2023-02-01T10:52:57;8.60;99.90
24146;DHT22;12308;50.948;4.706;2023-02-01T10:55:30;8.60;99.90
24146;DHT22;12308;50.948;4.706;2023-02-01T10:58:21;8.60;99.90
24146;DHT22;12308;50.948;4.706;2023-02-01T11:00:52;8.70;99.90
24146;DHT22;12308;50.948;4.706;2023-02-01T11:09:10;9.00;99.90
24146;DHT22;12308;50.948;4.706;2023-02-01T11:11:57;9.00;99.90
24146;DHT22;12308;50.948;4.706;2023-02-01T11:14:27;9.10;99.90
24146;DHT22;12308;50.948;4.706;2023-02-01T11:17:01;9.10;99.90
24146;DHT22;12308;50.948;4.706;2023-02-01T11:19:28;9.10;99.90
24146;DHT22;12308;50.948;4.706;2023-02-01T11:21:59;9.10;99.90
24146;DHT22;12308;50.948;4.706;2023-02-01T11:24:32;9.10;99.90
24146;DHT22;12308;50.948;4.706;2023-02-01T11:27:06;9.00;99.90
24146;DHT22;12308;50.948;4.706;2023-02-01T11:29:41;9.00;99.90
24146;DHT22;12308;50.948;4.706;2023-02-01T11:32:09;9.00;99.90
24146;DHT22;12308;50.948;4.706;2023-02-01T11:34:40;9.00;99.90
24146;DHT22;12308;50.948;4.706;2023-02-01T11:37:22;9.00;99.90
24146;DHT22;12308;50.948;4.706;2023-02-01T11:39:56;9.20;99.90
24146;DHT22;12308;50.948;4.706;2023-02-01T11:42:22;9.40;99.90
24146;DHT22;12308;50.948;4.706;2023-02-01T11:44:50;9.70;99.90
24146;DHT22;12308;50.948;4.706;2023-02-01T11:50:03;9.80;99.90
24146;DHT22;12308;50.948;4.706;2023-02-01T11:55:46;9.90;99.90
24146;DHT22;12308;50.948;4.706;2023-02-01T11:58:45;10.00;99.90
24146;DHT22;12308;50.948;4.706;2023-02-01T12:02:39;10.10;99.90
24146;DHT22;12308;50.948;4.706;2023-02-01T12:07:23;10.20;99.90
24146;DHT22;12308;50.948;4.706;2023-02-01T12:10:02;10.10;99.90
24146;DHT22;12308;50.948;4.706;2023-02-01T12:20:50;10.10;99.90
24146;DHT22;12308;50.948;4.706;2023-02-01T12:43:22;10.10;99.90
24146;DHT22;12308;50.948;4.706;2023-02-01T12:46:02;10.10;99.90
24146;DHT22;12308;50.948;4.706;2023-02-01T12:48:50;10.00;99.90
24146;DHT22;12308;50.948;4.706;2023-02-01T12:51:26;10.00;99.90
24146;DHT22;12308;50.948;4.706;2023-02-01T12:54:03;10.00;99.90
24146;DHT22;12308;50.948;4.706;2023-02-01T12:56:35;10.00;99.90
24146;DHT22;12308;50.948;4.706;2023-02-01T12:59:05;10.00;99.90
24146;DHT22;12308;50.948;4.706;2023-02-01T13:01:41;10.10;99.90
24146;DHT22;12308;50.948;4.706;2023-02-01T13:10:01;10.30;99.90
24146;DHT22;12308;50.948;4.706;2023-02-01T13:12:40;10.30;99.90
24146;DHT22;12308;50.948;4.706;2023-02-01T13:17:40;10.30;99.90
24146;DHT22;12308;50.948;4.706;2023-02-01T13:20:18;10.30;99.90
24146;DHT22;12308;50.948;4.706;2023-02-01T13:25:48;10.30;99.90
24146;DHT22;12308;50.948;4.706;2023-02-01T13:41:27;10.40;99.90
24146;DHT22;12308;50.948;4.706;2023-02-01T13:44:03;10.40;99.90
24146;DHT22;12308;50.948;4.706;2023-02-01T13:46:29;10.30;99.90
24146;DHT22;12308;50.948;4.706;2023-02-01T13:49:01;10.30;99.90
24146;DHT22;12308;50.948;4.706;2023-02-01T13:51:44;10.40;99.90
24146;DHT22;12308;50.948;4.706;2023-02-01T13:54:29;10.40;99.90
24146;DHT22;12308;50.948;4.706;2023-02-01T13:56:57;10.40;99.90
24146;DHT22;12308;50.948;4.706;2023-02-01T14:21:19;10.30;99.90
24146;DHT22;12308;50.948;4.706;2023-02-01T14:26:44;10.20;99.90
24146;DHT22;12308;50.948;4.706;2023-02-01T14:34:39;10.20;99.90
24146;DHT22;12308;50.948;4.706;2023-02-01T14:37:13;10.20;99.90
24146;DHT22;12308;50.948;4.706;2023-02-01T14:42:46;10.30;99.90
24146;DHT22;12308;50.948;4.706;2023-02-01T14:55:46;10.20;99.90
24146;DHT22;12308;50.948;4.706;2023-02-01T15:00:55;10.30;99.90
24146;DHT22;12308;50.948;4.706;2023-02-01T15:08:45;10.20;99.90
24146;DHT22;12308;50.948;4.706;2023-02-01T15:11:14;10.10;99.90
24146;DHT22;12308;50.948;4.706;2023-02-01T15:13:40;10.10;99.90
24146;DHT22;12308;50.948;4.706;2023-02-01T15:16:14;10.10;99.90
24146;DHT22;12308;50.948;4.706;2023-02-01T15:18:41;10.00;99.90
24146;DHT22;12308;50.948;4.706;2023-02-01T15:21:21;10.10;99.90
24146;DHT22;12308;50.948;4.706;2023-02-01T15:23:50;10.10;99.90
24146;DHT22;12308;50.948;4.706;2023-02-01T15:26:30;10.00;99.90
24146;DHT22;12308;50.948;4.706;2023-02-01T15:28:57;10.00;99.90
24146;DHT22;12308;50.948;4.706;2023-02-01T15:31:52;10.00;99.90
24146;DHT22;12308;50.948;4.706;2023-02-01T15:34:20;10.00;99.90
24146;DHT22;12308;50.948;4.706;2023-02-01T15:36:46;10.00;99.90
24146;DHT22;12308;50.948;4.706;2023-02-01T15:41:57;10.00;99.90
24146;DHT22;12308;50.948;4.706;2023-02-01T15:44:32;10.00;99.90
24146;DHT22;12308;50.948;4.706;2023-02-01T15:46:58;9.90;99.90
24146;DHT22;12308;50.948;4.706;2023-02-01T15:49:36;9.80;99.90
24146;DHT22;12308;50.948;4.706;2023-02-01T15:52:03;9.80;99.90
24146;DHT22;12308;50.948;4.706;2023-02-01T15:54:41;9.80;99.90
24146;DHT22;12308;50.948;4.706;2023-02-01T15:57:09;9.90;99.90
24146;DHT22;12308;50.948;4.706;2023-02-01T15:59:43;9.90;99.90
24146;DHT22;12308;50.948;4.706;2023-02-01T16:02:37;9.90;99.90
24146;DHT22;12308;50.948;4.706;2023-02-01T16:05:38;9.80;99.90
24146;DHT22;12308;50.948;4.706;2023-02-01T16:08:15;9.80;99.90
24146;DHT22;12308;50.948;4.706;2023-02-01T16:10:48;9.70;99.90
24146;DHT22;12308;50.948;4.706;2023-02-01T16:13:18;9.70;99.90
24146;DHT22;12308;50.948;4.706;2023-02-01T16:15:44;9.70;99.90
24146;DHT22;12308;50.948;4.706;2023-02-01T16:18:13;9.70;99.90
24146;DHT22;12308;50.948;4.706;2023-02-01T16:20:41;9.60;99.90
24146;DHT22;12308;50.948;4.706;2023-02-01T16:23:08;9.70;99.90
24146;DHT22;12308;50.948;4.706;2023-02-01T16:25:34;9.70;99.90
24146;DHT22;12308;50.948;4.706;2023-02-01T16:28:00;9.70;99.90
24146;DHT22;12308;50.948;4.706;2023-02-01T16:30:26;9.70;99.90
24146;DHT22;12308;50.948;4.706;2023-02-01T16:32:56;9.70;99.90
24146;DHT22;12308;50.948;4.706;2023-02-01T16:35:35;9.60;99.90
24146;DHT22;12308;50.948;4.706;2023-02-01T16:38:08;9.60;99.90
24146;DHT22;12308;50.948;4.706;2023-02-01T16:40:38;9.60;99.90
24146;DHT22;12308;50.948;4.706;2023-02-01T16:43:18;9.60;99.90
24146;DHT22;12308;50.948;4.706;2023-02-01T16:45:45;9.60;99.90
24146;DHT22;12308;50.948;4.706;2023-02-01T16:48:31;9.60;99.90
24146;DHT22;12308;50.948;4.706;2023-02-01T16:51:01;9.60;99.90
24146;DHT22;12308;50.948;4.706;2023-02-01T16:53:30;9.60;99.90
24146;DHT22;12308;50.948;4.706;2023-02-01T16:55:56;9.60;99.90
24146;DHT22;12308;50.948;4.706;2023-02-01T16:58:26;9.70;99.90
24146;DHT22;12308;50.948;4.706;2023-02-01T17:00:53;9.70;99.90
24146;DHT22;12308;50.948;4.706;2023-02-01T17:03:19;9.80;99.90
24146;DHT22;12308;50.948;4.706;2023-02-01T17:05:47;9.80;99.90
24146;DHT22;12308;50.948;4.706;2023-02-01T17:08:17;9.70;99.90
24146;DHT22;12308;50.948;4.706;2023-02-01T17:10:45;9.60;99.90
24146;DHT22;12308;50.948;4.706;2023-02-01T17:13:15;9.60;99.90
24146;DHT22;12308;50.948;4.706;2023-02-01T17:15:52;9.60;99.90
24146;DHT22;12308;50.948;4.706;2023-02-01T17:18:19;9.60;99.90
24146;DHT22;12308;50.948;4.706;2023-02-01T17:20:45;9.50;99.90
24146;DHT22;12308;50.948;4.706;2023-02-01T17:23:13;9.60;99.90
24146;DHT22;12308;50.948;4.706;2023-02-01T17:25:39;9.60;99.90
24146;DHT22;12308;50.948;4.706;2023-02-01T17:28:07;9.70;99.90
24146;DHT22;12308;50.948;4.706;2023-02-01T17:30:33;9.70;99.90
24146;DHT22;12308;50.948;4.706;2023-02-01T17:32:59;9.70;99.90
24146;DHT22;12308;50.948;4.706;2023-02-01T17:35:26;9.60;99.90
24146;DHT22;12308;50.948;4.706;2023-02-01T17:37:55;9.60;99.90
24146;DHT22;12308;50.948;4.706;2023-02-01T17:40:23;9.60;99.90
24146;DHT22;12308;50.948;4.706;2023-02-01T17:42:49;9.50;99.90
24146;DHT22;12308;50.948;4.706;2023-02-01T17:45:33;9.50;99.90
24146;DHT22;12308;50.948;4.706;2023-02-01T17:48:06;9.50;99.90
24146;DHT22;12308;50.948;4.706;2023-02-01T17:50:34;9.50;99.90
24146;DHT22;12308;50.948;4.706;2023-02-01T17:53:01;9.40;99.90
24146;DHT22;12308;50.948;4.706;2023-02-01T17:55:35;9.40;99.90
24146;DHT22;12308;50.948;4.706;2023-02-01T17:58:02;9.50;99.90
24146;DHT22;12308;50.948;4.706;2023-02-01T18:00:30;9.50;99.90
24146;DHT22;12308;50.948;4.706;2023-02-01T18:02:55;9.50;99.90
24146;DHT22;12308;50.948;4.706;2023-02-01T18:05:26;9.40;99.90
24146;DHT22;12308;50.948;4.706;2023-02-01T18:07:52;9.50;99.90
24146;DHT22;12308;50.948;4.706;2023-02-01T18:10:17;9.50;99.90
24146;DHT22;12308;50.948;4.706;2023-02-01T18:12:44;9.50;99.90
24146;DHT22;12308;50.948;4.706;2023-02-01T18:15:20;9.50;99.90
24146;DHT22;12308;50.948;4.706;2023-02-01T18:17:47;9.50;99.90
24146;DHT22;12308;50.948;4.706;2023-02-01T18:20:19;9.50;99.90
24146;DHT22;12308;50.948;4.706;2023-02-01T18:22:45;9.40;99.90
24146;DHT22;12308;50.948;4.706;2023-02-01T18:25:18;9.40;99.90
24146;DHT22;12308;50.948;4.706;2023-02-01T18:27:46;9.40;99.90
24146;DHT22;12308;50.948;4.706;2023-02-01T18:30:12;9.40;99.90
24146;DHT22;12308;50.948;4.706;2023-02-01T18:32:38;9.30;99.90
24146;DHT22;12308;50.948;4.706;2023-02-01T18:35:18;9.40;99.90
24146;DHT22;12308;50.948;4.706;2023-02-01T18:37:44;9.30;99.90
24146;DHT22;12308;50.948;4.706;2023-02-01T18:40:19;9.40;99.90
24146;DHT22;12308;50.948;4.706;2023-02-01T18:42:47;9.30;99.90
24146;DHT22;12308;50.948;4.706;2023-02-01T18:45:38;9.30;99.90
24146;DHT22;12308;50.948;4.706;2023-02-01T18:48:06;9.30;99.90
24146;DHT22;12308;50.948;4.706;2023-02-01T18:50:35;9.30;99.90
24146;DHT22;12308;50.948;4.706;2023-02-01T18:53:04;9.20;99.90
24146;DHT22;12308;50.948;4.706;2023-02-01T18:55:33;9.20;99.90
24146;DHT22;12308;50.948;4.706;2023-02-01T18:58:00;9.10;99.90
24146;DHT22;12308;50.948;4.706;2023-02-01T19:00:27;9.20;99.90
24146;DHT22;12308;50.948;4.706;2023-02-01T19:02:52;9.20;99.90